Etusivu
METAR-TAF:

METAR-TAF

Lentoasemat :

McCarranin kansainvälinen lentoasema

Las Vegas, Nevada, Yhdysvallat

Leveyspiiri: 36-04-44N, Pituuspiiri: 115-09-19W, korkeus merenpinnasta: 663 m

Tämänhetkinen sää

Tämä raportti tehtiin 32 minuuttia sitten, kello 07.56 UTC
tyyntä
Lämpötila 23°C
Kosteus 25%
Ilmanpaine 1014 hPa
Näkyvyys: 16.1 km
selkeää

METAR: KLAS 240756Z 00000KT 10SM CLR 23/02 A2995 RMK AO2 SLP120 T02280017 403060200

Aika: 01:28 (08:28 UTC)

Sääennuste

Tämä raportti tehtiin 3 tuntia ja 8 minuuttia sitten, kello 05.20 UTC
Ennuste voimassa 24. päivästä klo 06 UTC - 25. päivään klo 12 UTC
Tuuli 7 kn lounaasta
Näkyvyys: 10 km
selkeää
From 24. päivästä klo 1700 UTC
Tuuli 7 kn koillisesta
Näkyvyys: 10 km
Muutamia pilviä 10000 ft:n korkeudessa
From 25. päivästä klo 0400 UTC
Tuuli 5 kn lounaasta
Näkyvyys: 10 km
selkeää

TAF: KLAS 240520Z 2406/2512 23007KT P6SM SKC FM241700 04007KT P6SM FEW100 FM250400 22005KT P6SM SKC

Säähavainnot ja -ennusteet yli 4000 lentoasemalta (METAR- ja TAF-raportit).

Käytössä olevat sääasemat on merkitty karttaan keltaisilla ja punaisilla pisteillä.

Aseta hiiri pisteen päälle nähdäksesi sääaseman nimen.

Klikkaa sitten nähdäksesi säähavainnot ja -ennusteet.

Kartan vaihtaminen: klikkaa mustalla rastilla varustettuja vihreitä pisteitä, niin voit zoomata sisään; viivalla varustettua vihreää pistettä, niin voit zoomata ulos tai vihreitä nuolia, niin pääset viereisille kartoille.


METAR-TAF: